createdAt,value
2023-01-12T00:04:28.025Z,53.6
2023-01-12T00:09:03.369Z,53.6
2023-01-12T00:14:09.553Z,53.6
2023-01-12T00:19:16.900Z,53.5
2023-01-12T00:24:39.361Z,53.5
2023-01-12T00:29:31.112Z,53.4
2023-01-12T00:34:53.547Z,53.4
2023-01-12T00:40:21.707Z,53.4
2023-01-12T00:45:43.810Z,53.4
2023-01-12T00:51:08.766Z,53.3
2023-01-12T00:56:28.987Z,53.3
2023-01-12T01:01:51.900Z,53.3
2023-01-12T01:06:59.011Z,53.2
2023-01-12T01:11:50.876Z,53.2
2023-01-12T01:16:42.903Z,53.1
2023-01-12T01:21:49.452Z,53.1
2023-01-12T01:26:41.575Z,53.1
2023-01-12T01:31:47.974Z,53.1
2023-01-12T01:36:53.923Z,53
2023-01-12T01:42:16.976Z,52.9
2023-01-12T01:47:39.322Z,52.9
2023-01-12T01:52:45.723Z,52.9
2023-01-12T01:58:08.514Z,52.9
2023-01-12T02:03:15.231Z,52.8
2023-01-12T02:08:26.362Z,53.2
2023-01-12T02:13:34.014Z,54
2023-01-12T02:18:55.931Z,54.9
2023-01-12T02:24:18.109Z,55.9
2023-01-12T02:29:25.277Z,56.9
2023-01-12T02:34:47.850Z,57.9
2023-01-12T02:40:12.065Z,58.9
2023-01-12T02:45:35.120Z,59.9
2023-01-12T02:50:56.294Z,60.9
2023-01-12T02:56:18.221Z,61.4
2023-01-12T03:01:41.688Z,61.6
2023-01-12T03:07:03.880Z,62.1
2023-01-12T03:12:10.396Z,62.3
2023-01-12T03:17:33.504Z,62.3
2023-01-12T03:22:55.295Z,62.5
2023-01-12T03:28:01.961Z,62.5
2023-01-12T03:33:24.791Z,62.5
2023-01-12T03:38:47.478Z,62.5
2023-01-12T03:44:10.216Z,62.4
2023-01-12T03:49:33.255Z,62.4
2023-01-12T03:54:54.910Z,62.4
2023-01-12T04:00:16.100Z,62.4
2023-01-12T04:05:40.157Z,62.3
2023-01-12T04:10:46.487Z,62.3
2023-01-12T04:15:54.426Z,62.3
2023-01-12T04:21:16.775Z,62.2
2023-01-12T04:26:23.480Z,62.2
2023-01-12T04:31:29.899Z,62.2
2023-01-12T04:36:52.932Z,62.1
2023-01-12T04:42:14.639Z,62.1
2023-01-12T04:47:39.366Z,62.1
2023-01-12T04:53:02.272Z,62
2023-01-12T04:58:25.175Z,61.9
2023-01-12T05:03:47.726Z,61.9
2023-01-12T05:09:13.193Z,61.9
2023-01-12T05:14:34.937Z,61.8
2023-01-12T05:19:59.882Z,61.8
2023-01-12T05:25:08.053Z,61.8
2023-01-12T05:30:31.649Z,61.7
2023-01-12T05:35:38.707Z,61.6
2023-01-12T05:40:45.841Z,61.6
2023-01-12T05:46:08.288Z,61.6
2023-01-12T05:51:29.518Z,61.5
2023-01-12T05:56:52.890Z,61.4
2023-01-12T06:01:59.647Z,61.4
2023-01-12T06:07:07.684Z,61.4
2023-01-12T06:12:16.708Z,61.3
2023-01-12T06:17:23.720Z,61.3
2023-01-12T06:22:46.803Z,61.3
2023-01-12T06:28:09.560Z,61.2
2023-01-12T06:33:31.512Z,61.1
2023-01-12T06:39:01.963Z,61.1
2023-01-12T06:44:24.996Z,61.1
2023-01-12T06:49:47.586Z,61
2023-01-12T06:55:09.363Z,61
2023-01-12T07:00:32.636Z,60.9
2023-01-12T07:05:55.146Z,60.9
2023-01-12T07:11:18.163Z,60.8
2023-01-12T07:16:44.176Z,60.8
2023-01-12T07:22:06.578Z,60.7
2023-01-12T07:27:31.520Z,60.6
2023-01-12T07:32:54.700Z,60.6
2023-01-12T07:38:18.600Z,60.6
2023-01-12T07:43:41.618Z,60.5
2023-01-12T07:49:04.934Z,60.4
2023-01-12T07:54:28.936Z,60.4
2023-01-12T07:59:51.300Z,60.4
2023-01-12T08:05:17.807Z,60.3
2023-01-12T08:10:40.290Z,60.3
2023-01-12T08:16:02.271Z,60.3
2023-01-12T08:21:25.938Z,60.1
2023-01-12T08:26:49.609Z,60.1
2023-01-12T08:32:12.250Z,60.1
2023-01-12T08:37:53.168Z,60
2023-01-12T08:43:17.937Z,60
2023-01-12T08:48:40.661Z,59.9
2023-01-12T08:54:07.523Z,59.9
2023-01-12T08:59:29.811Z,59.9
2023-01-12T09:04:38.151Z,59.8
2023-01-12T09:09:45.536Z,59.8
2023-01-12T09:15:08.663Z,59.8
2023-01-12T09:20:46.095Z,59.7
2023-01-12T09:26:11.370Z,59.6
2023-01-12T09:31:35.623Z,59.6
2023-01-12T09:37:06.644Z,59.5
2023-01-12T09:42:36.637Z,59.5
2023-01-12T09:47:43.991Z,59.4
2023-01-12T09:53:16.304Z,59.4
2023-01-12T09:58:51.134Z,59.4
2023-01-12T10:04:21.615Z,59.3
2023-01-12T10:09:55.241Z,59.3
2023-01-12T10:15:18.030Z,59.2
2023-01-12T10:20:44.054Z,59.1
2023-01-12T10:26:07.468Z,59.1
2023-01-12T10:31:30.850Z,59.1
2023-01-12T10:36:57.309Z,59.1
2023-01-12T10:42:19.738Z,59
2023-01-12T10:47:52.936Z,58.9
2023-01-12T10:53:15.768Z,58.9
2023-01-12T10:58:41.271Z,58.9
2023-01-12T11:04:06.095Z,58.8
2023-01-12T11:09:28.479Z,58.8
2023-01-12T11:14:57.323Z,58.8
2023-01-12T11:20:23.622Z,58.7
2023-01-12T11:25:46.043Z,58.6
2023-01-12T11:36:01.603Z,58.5
2023-01-12T11:41:09.052Z,58.4
2023-01-12T11:46:31.465Z,58.4
2023-01-12T11:51:57.761Z,58.4
2023-01-12T11:57:22.373Z,58.3
2023-01-12T12:02:49.072Z,58.3
2023-01-12T12:08:12.274Z,58.2
2023-01-12T12:13:38.342Z,58.2
2023-01-12T12:18:47.925Z,58.1
2023-01-12T12:24:12.004Z,58.1
2023-01-12T12:29:34.681Z,58.1
2023-01-12T12:34:41.827Z,58
2023-01-12T12:40:05.153Z,57.9
2023-01-12T12:45:28.019Z,57.9
2023-01-12T12:50:50.434Z,57.9
2023-01-12T12:56:16.596Z,57.8
2023-01-12T13:11:24.566Z,57.7
2023-01-12T13:16:34.657Z,57.6
2023-01-12T13:22:05.668Z,57.6
2023-01-12T13:27:29.043Z,57.6
2023-01-12T13:32:38.365Z,57.5
2023-01-12T13:37:48.309Z,57.4
2023-01-12T13:42:59.519Z,57.4
2023-01-12T13:48:22.759Z,57.4
2023-01-12T13:53:45.633Z,57.3
2023-01-12T13:59:09.611Z,57.3
2023-01-12T14:04:36.235Z,57.3
2023-01-12T14:10:12.697Z,57.2
2023-01-12T14:15:36.020Z,57.2
2023-01-12T14:21:21.141Z,57.1
2023-01-12T14:26:43.800Z,57.1
2023-01-12T14:32:07.306Z,57
2023-01-12T14:37:29.747Z,57
2023-01-12T14:42:52.531Z,56.9
2023-01-12T14:48:15.868Z,56.9
2023-01-12T14:53:38.532Z,56.8
2023-01-12T14:59:01.315Z,56.8
2023-01-12T15:04:33.465Z,56.8
2023-01-12T15:09:56.285Z,56.7
2023-01-12T15:15:18.717Z,56.7
2023-01-12T15:20:41.547Z,56.6
2023-01-12T15:26:04.298Z,56.6
2023-01-12T15:31:39.060Z,56.5
2023-01-12T15:37:15.315Z,56.5
2023-01-12T15:42:37.494Z,56.4
2023-01-12T15:47:59.931Z,56.4
2023-01-12T15:53:22.994Z,56.4
2023-01-12T15:58:29.313Z,56.3
2023-01-12T16:04:57.927Z,56.2
2023-01-12T16:10:22.524Z,56.1
2023-01-12T16:15:45.541Z,56.1
2023-01-12T16:20:52.820Z,56.1
2023-01-12T16:26:16.486Z,56
2023-01-12T16:31:41.004Z,55.9
2023-01-12T16:37:03.778Z,55.9
2023-01-12T16:42:27.122Z,55.9
2023-01-12T16:47:21.000Z,55.8
2023-01-12T16:52:44.320Z,55.8
2023-01-12T16:58:08.639Z,55.8
2023-01-12T17:03:37.637Z,55.7
2023-01-12T17:08:31.018Z,55.7
2023-01-12T17:14:06.661Z,55.6
2023-01-12T17:19:17.828Z,55.6
2023-01-12T17:24:43.911Z,55.5
2023-01-12T17:29:54.419Z,55.5
2023-01-12T17:34:49.012Z,55.4
2023-01-12T17:40:12.185Z,55.4
2023-01-12T17:45:35.760Z,55.4
2023-01-12T17:51:02.597Z,55.3
2023-01-12T17:56:20.702Z,55.3
2023-01-12T18:01:29.602Z,55.3
2023-01-12T18:07:16.033Z,55.2
2023-01-12T18:12:39.201Z,55.1
2023-01-12T18:18:04.513Z,55.1
2023-01-12T18:23:12.697Z,55.1
2023-01-12T18:28:37.428Z,55
2023-01-12T18:34:01.253Z,55
2023-01-12T18:39:28.238Z,54.9
2023-01-12T18:44:52.820Z,54.9
2023-01-12T18:50:03.175Z,54.8
2023-01-12T18:55:31.446Z,54.8
2023-01-12T19:00:58.854Z,54.8
2023-01-12T19:06:28.256Z,54.7
2023-01-12T19:11:57.844Z,54.7
2023-01-12T19:17:28.392Z,54.6
2023-01-12T19:22:43.307Z,54.6
2023-01-12T19:27:41.700Z,54.6
2023-01-12T19:33:15.322Z,54.5
2023-01-12T19:38:58.204Z,54.4
2023-01-12T19:44:29.220Z,54.4
2023-01-12T19:50:00.982Z,54.4
2023-01-12T19:55:33.212Z,54.3
2023-01-12T20:00:47.176Z,54.3
2023-01-12T20:06:15.257Z,54.2
2023-01-12T20:11:27.565Z,54.2
2023-01-12T20:16:58.594Z,54.1
2023-01-12T20:22:29.467Z,54.1
2023-01-12T20:27:27.977Z,54.1
2023-01-12T20:33:14.517Z,54
2023-01-12T20:38:40.821Z,53.9
2023-01-12T20:44:07.835Z,53.9
2023-01-12T20:49:35.545Z,53.9
2023-01-12T20:54:59.711Z,53.8
2023-01-12T21:00:24.005Z,53.8
2023-01-12T21:05:23.009Z,54
2023-01-12T21:10:58.996Z,54.8
2023-01-12T21:16:09.236Z,55.1
2023-01-12T21:21:32.332Z,55.1
2023-01-12T21:26:56.051Z,55.1
2023-01-12T21:32:19.656Z,55.1
2023-01-12T21:37:43.348Z,55.1
2023-01-12T21:42:50.403Z,55.1
2023-01-12T21:47:58.360Z,55.1
2023-01-12T21:53:23.320Z,55
2023-01-12T21:58:15.515Z,55
2023-01-12T22:03:39.134Z,54.9
2023-01-12T22:08:46.823Z,54.9
2023-01-12T22:14:09.357Z,54.9
2023-01-12T22:19:16.798Z,54.9
2023-01-12T22:24:39.404Z,54.8
2023-01-12T22:30:01.563Z,54.8
2023-01-12T22:35:24.611Z,54.8
2023-01-12T22:40:35.205Z,54.8
2023-01-12T22:45:41.714Z,54.7
2023-01-12T22:51:12.851Z,54.6
2023-01-12T22:56:35.956Z,54.6
2023-01-12T23:01:42.348Z,54.6
2023-01-12T23:06:50.388Z,54.6
2023-01-12T23:11:57.153Z,54.5
2023-01-12T23:17:19.771Z,54.5
2023-01-12T23:22:41.782Z,54.4
2023-01-12T23:27:48.744Z,54.4
2023-01-12T23:33:10.355Z,54.4
2023-01-12T23:38:17.167Z,54.4
2023-01-12T23:43:39.544Z,54.3
2023-01-12T23:49:00.734Z,54.3
2023-01-12T23:54:23.178Z,54.3
2023-01-12T23:59:45.409Z,54.2
